sensor_id;sensor_type;location;lat;lon;timestamp;temperature;humidity
58865;DHT22;45702;52.982;6.658;2022-07-11T00:02:24;16.10;99.90
58865;DHT22;45702;52.982;6.658;2022-07-11T00:04:50;16.10;99.90
58865;DHT22;45702;52.982;6.658;2022-07-11T00:07:16;16.10;99.90
58865;DHT22;45702;52.982;6.658;2022-07-11T00:09:42;16.10;99.90
58865;DHT22;45702;52.982;6.658;2022-07-11T00:12:08;16.10;99.90
58865;DHT22;45702;52.982;6.658;2022-07-11T00:14:35;16.10;99.90
58865;DHT22;45702;52.982;6.658;2022-07-11T00:17:01;16.10;99.90
58865;DHT22;45702;52.982;6.658;2022-07-11T00:19:26;16.10;99.90
58865;DHT22;45702;52.982;6.658;2022-07-11T00:21:52;16.10;99.90
58865;DHT22;45702;52.982;6.658;2022-07-11T00:24:19;16.10;99.90
58865;DHT22;45702;52.982;6.658;2022-07-11T00:26:48;16.10;99.90
58865;DHT22;45702;52.982;6.658;2022-07-11T00:29:15;16.00;99.90
58865;DHT22;45702;52.982;6.658;2022-07-11T00:31:41;16.10;99.90
58865;DHT22;45702;52.982;6.658;2022-07-11T00:34:07;16.00;99.90
58865;DHT22;45702;52.982;6.658;2022-07-11T00:36:32;16.00;99.90
58865;DHT22;45702;52.982;6.658;2022-07-11T00:38:59;16.00;99.90
58865;DHT22;45702;52.982;6.658;2022-07-11T00:41:25;16.00;99.90
58865;DHT22;45702;52.982;6.658;2022-07-11T00:43:56;16.00;99.90
58865;DHT22;45702;52.982;6.658;2022-07-11T00:46:23;15.90;99.90
58865;DHT22;45702;52.982;6.658;2022-07-11T00:48:49;15.90;99.90
58865;DHT22;45702;52.982;6.658;2022-07-11T00:51:20;15.90;99.90
58865;DHT22;45702;52.982;6.658;2022-07-11T00:53:48;15.90;99.90
58865;DHT22;45702;52.982;6.658;2022-07-11T00:56:14;15.90;99.90
58865;DHT22;45702;52.982;6.658;2022-07-11T00:58:41;15.90;99.90
58865;DHT22;45702;52.982;6.658;2022-07-11T01:01:07;15.90;99.90
58865;DHT22;45702;52.982;6.658;2022-07-11T01:03:34;15.90;99.90
58865;DHT22;45702;52.982;6.658;2022-07-11T01:06:01;15.80;99.90
58865;DHT22;45702;52.982;6.658;2022-07-11T01:08:27;15.80;99.90
58865;DHT22;45702;52.982;6.658;2022-07-11T01:11:00;15.90;99.90
58865;DHT22;45702;52.982;6.658;2022-07-11T01:13:26;15.90;99.90
58865;DHT22;45702;52.982;6.658;2022-07-11T01:16:07;15.80;99.90
58865;DHT22;45702;52.982;6.658;2022-07-11T01:18:32;15.80;99.90
58865;DHT22;45702;52.982;6.658;2022-07-11T01:20:58;15.80;99.90
58865;DHT22;45702;52.982;6.658;2022-07-11T01:23:23;15.80;99.90
58865;DHT22;45702;52.982;6.658;2022-07-11T01:25:49;15.70;99.90
58865;DHT22;45702;52.982;6.658;2022-07-11T01:28:15;15.70;99.90
58865;DHT22;45702;52.982;6.658;2022-07-11T01:30:41;15.70;99.90
58865;DHT22;45702;52.982;6.658;2022-07-11T01:33:06;15.70;99.90
58865;DHT22;45702;52.982;6.658;2022-07-11T01:35:32;15.70;99.90
58865;DHT22;45702;52.982;6.658;2022-07-11T01:37:58;15.70;99.90
58865;DHT22;45702;52.982;6.658;2022-07-11T01:40:23;15.70;99.90
58865;DHT22;45702;52.982;6.658;2022-07-11T01:42:49;15.70;99.90
58865;DHT22;45702;52.982;6.658;2022-07-11T01:45:15;15.70;99.90
58865;DHT22;45702;52.982;6.658;2022-07-11T01:47:41;15.70;99.90
58865;DHT22;45702;52.982;6.658;2022-07-11T01:50:07;15.60;99.90
58865;DHT22;45702;52.982;6.658;2022-07-11T01:52:33;15.60;99.90
58865;DHT22;45702;52.982;6.658;2022-07-11T01:54:58;15.60;99.90
58865;DHT22;45702;52.982;6.658;2022-07-11T01:57:24;15.60;99.90
58865;DHT22;45702;52.982;6.658;2022-07-11T01:59:50;15.60;99.90
58865;DHT22;45702;52.982;6.658;2022-07-11T02:02:16;15.60;99.90
58865;DHT22;45702;52.982;6.658;2022-07-11T02:04:42;15.60;99.90
58865;DHT22;45702;52.982;6.658;2022-07-11T02:07:08;15.50;99.90
58865;DHT22;45702;52.982;6.658;2022-07-11T02:09:35;15.50;99.90
58865;DHT22;45702;52.982;6.658;2022-07-11T02:12:00;15.50;99.90
58865;DHT22;45702;52.982;6.658;2022-07-11T02:14:26;15.50;99.90
58865;DHT22;45702;52.982;6.658;2022-07-11T02:16:52;15.50;99.90
58865;DHT22;45702;52.982;6.658;2022-07-11T02:19:17;15.50;99.90
58865;DHT22;45702;52.982;6.658;2022-07-11T02:21:43;15.50;99.90
58865;DHT22;45702;52.982;6.658;2022-07-11T02:24:09;15.50;99.90
58865;DHT22;45702;52.982;6.658;2022-07-11T02:26:35;15.50;99.90
58865;DHT22;45702;52.982;6.658;2022-07-11T02:29:01;15.50;99.90
58865;DHT22;45702;52.982;6.658;2022-07-11T02:31:27;15.50;99.90
58865;DHT22;45702;52.982;6.658;2022-07-11T02:33:53;15.50;99.90
58865;DHT22;45702;52.982;6.658;2022-07-11T02:36:18;15.50;99.90
58865;DHT22;45702;52.982;6.658;2022-07-11T02:38:44;15.50;99.90
58865;DHT22;45702;52.982;6.658;2022-07-11T02:41:10;15.50;99.90
58865;DHT22;45702;52.982;6.658;2022-07-11T02:43:36;15.50;99.90
58865;DHT22;45702;52.982;6.658;2022-07-11T02:46:01;15.50;99.90
58865;DHT22;45702;52.982;6.658;2022-07-11T02:48:27;15.50;99.90
58865;DHT22;45702;52.982;6.658;2022-07-11T02:50:53;15.60;99.90
58865;DHT22;45702;52.982;6.658;2022-07-11T02:53:19;15.60;99.90
58865;DHT22;45702;52.982;6.658;2022-07-11T02:55:45;15.60;99.90
58865;DHT22;45702;52.982;6.658;2022-07-11T02:58:11;15.50;99.90
58865;DHT22;45702;52.982;6.658;2022-07-11T03:00:36;15.60;99.90
58865;DHT22;45702;52.982;6.658;2022-07-11T03:03:02;15.60;99.90
58865;DHT22;45702;52.982;6.658;2022-07-11T03:05:28;15.60;99.90
58865;DHT22;45702;52.982;6.658;2022-07-11T03:07:54;15.50;99.90
58865;DHT22;45702;52.982;6.658;2022-07-11T03:10:20;15.50;99.90
58865;DHT22;45702;52.982;6.658;2022-07-11T03:12:45;15.50;99.90
58865;DHT22;45702;52.982;6.658;2022-07-11T03:15:11;15.50;99.90
58865;DHT22;45702;52.982;6.658;2022-07-11T03:17:37;15.50;99.90
58865;DHT22;45702;52.982;6.658;2022-07-11T03:20:04;15.50;99.90
58865;DHT22;45702;52.982;6.658;2022-07-11T03:22:31;15.60;99.90
58865;DHT22;45702;52.982;6.658;2022-07-11T03:24:57;15.60;99.90
58865;DHT22;45702;52.982;6.658;2022-07-11T03:27:23;15.60;99.90
58865;DHT22;45702;52.982;6.658;2022-07-11T03:29:50;15.60;99.90
58865;DHT22;45702;52.982;6.658;2022-07-11T03:32:15;15.50;99.90
58865;DHT22;45702;52.982;6.658;2022-07-11T03:34:41;15.50;99.90
58865;DHT22;45702;52.982;6.658;2022-07-11T03:37:27;15.50;99.90
58865;DHT22;45702;52.982;6.658;2022-07-11T03:39:52;15.50;99.90
58865;DHT22;45702;52.982;6.658;2022-07-11T03:42:18;15.50;99.90
58865;DHT22;45702;52.982;6.658;2022-07-11T03:44:44;15.50;99.90
58865;DHT22;45702;52.982;6.658;2022-07-11T03:47:09;15.50;99.90
58865;DHT22;45702;52.982;6.658;2022-07-11T03:49:35;15.50;99.90
58865;DHT22;45702;52.982;6.658;2022-07-11T03:52:00;15.50;99.90
58865;DHT22;45702;52.982;6.658;2022-07-11T03:54:26;15.50;99.90
58865;DHT22;45702;52.982;6.658;2022-07-11T03:56:52;15.60;99.90
58865;DHT22;45702;52.982;6.658;2022-07-11T03:59:17;15.50;99.90
58865;DHT22;45702;52.982;6.658;2022-07-11T04:01:43;15.50;99.90
58865;DHT22;45702;52.982;6.658;2022-07-11T04:04:08;15.40;99.90
58865;DHT22;45702;52.982;6.658;2022-07-11T04:06:34;15.40;99.90
58865;DHT22;45702;52.982;6.658;2022-07-11T04:09:00;15.50;99.90
58865;DHT22;45702;52.982;6.658;2022-07-11T04:11:26;15.40;99.90
58865;DHT22;45702;52.982;6.658;2022-07-11T04:13:52;15.50;99.90
58865;DHT22;45702;52.982;6.658;2022-07-11T04:16:17;15.40;99.90
58865;DHT22;45702;52.982;6.658;2022-07-11T04:18:43;15.50;99.90
58865;DHT22;45702;52.982;6.658;2022-07-11T04:21:09;15.50;99.90
58865;DHT22;45702;52.982;6.658;2022-07-11T04:23:35;15.50;99.90
58865;DHT22;45702;52.982;6.658;2022-07-11T04:26:01;15.50;99.90
58865;DHT22;45702;52.982;6.658;2022-07-11T04:28:26;15.50;99.90
58865;DHT22;45702;52.982;6.658;2022-07-11T04:30:52;15.50;99.90
58865;DHT22;45702;52.982;6.658;2022-07-11T04:33:18;15.50;99.90
58865;DHT22;45702;52.982;6.658;2022-07-11T04:35:43;15.50;99.90
58865;DHT22;45702;52.982;6.658;2022-07-11T04:38:09;15.60;99.90
58865;DHT22;45702;52.982;6.658;2022-07-11T04:40:35;15.50;99.90
58865;DHT22;45702;52.982;6.658;2022-07-11T04:43:00;15.50;99.90
58865;DHT22;45702;52.982;6.658;2022-07-11T04:45:26;15.50;99.90
58865;DHT22;45702;52.982;6.658;2022-07-11T04:47:51;15.50;99.90
58865;DHT22;45702;52.982;6.658;2022-07-11T04:50:17;15.60;99.90
58865;DHT22;45702;52.982;6.658;2022-07-11T04:52:43;15.60;99.90
58865;DHT22;45702;52.982;6.658;2022-07-11T04:55:08;15.60;99.90
58865;DHT22;45702;52.982;6.658;2022-07-11T04:57:34;15.50;99.90
58865;DHT22;45702;52.982;6.658;2022-07-11T05:00:00;15.60;99.90
58865;DHT22;45702;52.982;6.658;2022-07-11T05:02:25;15.60;99.90
58865;DHT22;45702;52.982;6.658;2022-07-11T05:04:51;15.60;99.90
58865;DHT22;45702;52.982;6.658;2022-07-11T05:07:17;15.70;99.90
58865;DHT22;45702;52.982;6.658;2022-07-11T05:09:42;15.70;99.90
58865;DHT22;45702;52.982;6.658;2022-07-11T05:12:08;15.70;99.90
58865;DHT22;45702;52.982;6.658;2022-07-11T05:14:34;15.80;99.90
58865;DHT22;45702;52.982;6.658;2022-07-11T05:17:00;15.80;99.90
58865;DHT22;45702;52.982;6.658;2022-07-11T05:19:25;15.80;99.90
58865;DHT22;45702;52.982;6.658;2022-07-11T05:21:51;15.90;99.90
58865;DHT22;45702;52.982;6.658;2022-07-11T05:24:17;15.90;99.90
58865;DHT22;45702;52.982;6.658;2022-07-11T05:26:44;15.90;99.90
58865;DHT22;45702;52.982;6.658;2022-07-11T05:29:10;16.00;99.90
58865;DHT22;45702;52.982;6.658;2022-07-11T05:31:36;15.90;99.90
58865;DHT22;45702;52.982;6.658;2022-07-11T05:34:01;16.00;99.90
58865;DHT22;45702;52.982;6.658;2022-07-11T05:36:27;16.00;99.90
58865;DHT22;45702;52.982;6.658;2022-07-11T05:38:53;16.00;99.90
58865;DHT22;45702;52.982;6.658;2022-07-11T05:41:18;16.00;99.90
58865;DHT22;45702;52.982;6.658;2022-07-11T05:43:44;16.00;99.90
58865;DHT22;45702;52.982;6.658;2022-07-11T05:46:10;16.10;99.90
58865;DHT22;45702;52.982;6.658;2022-07-11T05:48:35;16.00;99.90
58865;DHT22;45702;52.982;6.658;2022-07-11T05:51:01;16.10;99.90
58865;DHT22;45702;52.982;6.658;2022-07-11T05:53:26;16.10;99.90
58865;DHT22;45702;52.982;6.658;2022-07-11T05:55:52;16.10;99.90
58865;DHT22;45702;52.982;6.658;2022-07-11T05:58:18;16.10;99.90
58865;DHT22;45702;52.982;6.658;2022-07-11T06:00:43;16.00;99.90
58865;DHT22;45702;52.982;6.658;2022-07-11T06:03:09;16.00;99.90
58865;DHT22;45702;52.982;6.658;2022-07-11T06:05:35;16.10;99.90
58865;DHT22;45702;52.982;6.658;2022-07-11T06:08:00;16.10;99.90
58865;DHT22;45702;52.982;6.658;2022-07-11T06:10:45;16.10;99.90
58865;DHT22;45702;52.982;6.658;2022-07-11T06:13:10;16.10;99.90
58865;DHT22;45702;52.982;6.658;2022-07-11T06:15:36;16.20;99.90
58865;DHT22;45702;52.982;6.658;2022-07-11T06:18:02;16.20;99.90
58865;DHT22;45702;52.982;6.658;2022-07-11T06:20:28;16.20;99.90
58865;DHT22;45702;52.982;6.658;2022-07-11T06:22:54;16.30;99.90
58865;DHT22;45702;52.982;6.658;2022-07-11T06:25:20;16.30;99.90
58865;DHT22;45702;52.982;6.658;2022-07-11T06:27:46;16.30;99.90
58865;DHT22;45702;52.982;6.658;2022-07-11T06:30:11;16.30;99.90
58865;DHT22;45702;52.982;6.658;2022-07-11T06:32:39;16.40;99.90
58865;DHT22;45702;52.982;6.658;2022-07-11T06:35:05;16.40;99.90
58865;DHT22;45702;52.982;6.658;2022-07-11T06:37:31;16.40;99.90
58865;DHT22;45702;52.982;6.658;2022-07-11T06:39:58;16.40;99.90
58865;DHT22;45702;52.982;6.658;2022-07-11T06:42:23;16.40;99.90
58865;DHT22;45702;52.982;6.658;2022-07-11T06:44:49;16.50;99.90
58865;DHT22;45702;52.982;6.658;2022-07-11T06:47:14;16.50;99.90
58865;DHT22;45702;52.982;6.658;2022-07-11T06:49:40;16.60;99.90
58865;DHT22;45702;52.982;6.658;2022-07-11T06:52:06;16.60;99.90
58865;DHT22;45702;52.982;6.658;2022-07-11T06:54:31;16.70;99.90
58865;DHT22;45702;52.982;6.658;2022-07-11T06:56:57;16.80;99.90
58865;DHT22;45702;52.982;6.658;2022-07-11T06:59:23;16.80;99.90
58865;DHT22;45702;52.982;6.658;2022-07-11T07:01:49;16.80;99.90
58865;DHT22;45702;52.982;6.658;2022-07-11T07:04:14;16.90;99.90
58865;DHT22;45702;52.982;6.658;2022-07-11T07:06:40;17.00;99.90
58865;DHT22;45702;52.982;6.658;2022-07-11T07:09:06;17.00;99.90
58865;DHT22;45702;52.982;6.658;2022-07-11T07:11:31;17.00;99.90
58865;DHT22;45702;52.982;6.658;2022-07-11T07:13:57;17.00;99.90
58865;DHT22;45702;52.982;6.658;2022-07-11T07:16:23;17.00;99.90
58865;DHT22;45702;52.982;6.658;2022-07-11T07:18:48;17.10;99.90
58865;DHT22;45702;52.982;6.658;2022-07-11T07:21:16;17.10;99.90
58865;DHT22;45702;52.982;6.658;2022-07-11T07:23:41;17.20;99.90
58865;DHT22;45702;52.982;6.658;2022-07-11T07:26:07;17.20;99.90
58865;DHT22;45702;52.982;6.658;2022-07-11T07:28:33;17.20;99.90
58865;DHT22;45702;52.982;6.658;2022-07-11T07:30:59;17.20;99.90
58865;DHT22;45702;52.982;6.658;2022-07-11T07:33:24;17.30;99.90
58865;DHT22;45702;52.982;6.658;2022-07-11T07:35:50;17.30;99.90
58865;DHT22;45702;52.982;6.658;2022-07-11T07:38:16;17.40;99.90
58865;DHT22;45702;52.982;6.658;2022-07-11T07:40:42;17.40;99.90
58865;DHT22;45702;52.982;6.658;2022-07-11T07:43:07;17.40;99.90
58865;DHT22;45702;52.982;6.658;2022-07-11T07:45:34;17.50;99.90
58865;DHT22;45702;52.982;6.658;2022-07-11T07:47:59;17.50;99.90
58865;DHT22;45702;52.982;6.658;2022-07-11T07:50:25;17.50;99.90
58865;DHT22;45702;52.982;6.658;2022-07-11T07:52:51;17.40;99.90
58865;DHT22;45702;52.982;6.658;2022-07-11T07:55:16;17.50;99.90
58865;DHT22;45702;52.982;6.658;2022-07-11T07:57:43;17.60;99.90
58865;DHT22;45702;52.982;6.658;2022-07-11T08:00:09;17.60;99.90
58865;DHT22;45702;52.982;6.658;2022-07-11T08:02:53;17.70;99.90
58865;DHT22;45702;52.982;6.658;2022-07-11T08:05:19;17.70;99.90
58865;DHT22;45702;52.982;6.658;2022-07-11T08:07:45;17.70;99.90
58865;DHT22;45702;52.982;6.658;2022-07-11T08:10:11;17.70;99.90
58865;DHT22;45702;52.982;6.658;2022-07-11T08:12:37;17.70;99.90
58865;DHT22;45702;52.982;6.658;2022-07-11T08:15:03;17.70;99.90
58865;DHT22;45702;52.982;6.658;2022-07-11T08:17:29;17.70;99.90
58865;DHT22;45702;52.982;6.658;2022-07-11T08:19:55;17.80;99.90
58865;DHT22;45702;52.982;6.658;2022-07-11T08:22:20;17.90;99.90
58865;DHT22;45702;52.982;6.658;2022-07-11T08:24:46;18.10;99.90
58865;DHT22;45702;52.982;6.658;2022-07-11T08:27:12;18.20;99.90
58865;DHT22;45702;52.982;6.658;2022-07-11T08:29:37;18.30;99.90
58865;DHT22;45702;52.982;6.658;2022-07-11T08:32:03;18.30;99.90
58865;DHT22;45702;52.982;6.658;2022-07-11T08:34:29;18.30;99.90
58865;DHT22;45702;52.982;6.658;2022-07-11T08:36:54;18.40;99.90
58865;DHT22;45702;52.982;6.658;2022-07-11T08:39:20;18.40;99.90
58865;DHT22;45702;52.982;6.658;2022-07-11T08:41:46;18.50;99.90
58865;DHT22;45702;52.982;6.658;2022-07-11T08:44:11;18.60;99.90
58865;DHT22;45702;52.982;6.658;2022-07-11T08:46:39;18.60;99.90
58865;DHT22;45702;52.982;6.658;2022-07-11T08:49:06;18.60;99.90
58865;DHT22;45702;52.982;6.658;2022-07-11T08:51:32;18.40;99.90
58865;DHT22;45702;52.982;6.658;2022-07-11T08:53:57;18.30;99.90
58865;DHT22;45702;52.982;6.658;2022-07-11T08:56:24;18.30;99.90
58865;DHT22;45702;52.982;6.658;2022-07-11T08:58:53;18.30;99.90
58865;DHT22;45702;52.982;6.658;2022-07-11T09:01:27;18.30;99.90
58865;DHT22;45702;52.982;6.658;2022-07-11T09:03:53;18.30;99.90
58865;DHT22;45702;52.982;6.658;2022-07-11T09:06:20;18.30;99.90
58865;DHT22;45702;52.982;6.658;2022-07-11T09:08:46;18.40;99.90
58865;DHT22;45702;52.982;6.658;2022-07-11T09:11:12;18.50;99.90
58865;DHT22;45702;52.982;6.658;2022-07-11T09:13:37;18.50;99.90
58865;DHT22;45702;52.982;6.658;2022-07-11T09:16:05;18.50;99.90
58865;DHT22;45702;52.982;6.658;2022-07-11T09:18:34;18.60;99.90
58865;DHT22;45702;52.982;6.658;2022-07-11T09:21:10;18.60;99.90
58865;DHT22;45702;52.982;6.658;2022-07-11T09:23:57;18.60;99.90
58865;DHT22;45702;52.982;6.658;2022-07-11T09:26:47;18.60;99.90
58865;DHT22;45702;52.982;6.658;2022-07-11T09:29:15;18.70;99.90
58865;DHT22;45702;52.982;6.658;2022-07-11T09:31:43;18.70;99.90
58865;DHT22;45702;52.982;6.658;2022-07-11T09:34:15;18.70;99.90
58865;DHT22;45702;52.982;6.658;2022-07-11T09:36:46;18.70;99.90
58865;DHT22;45702;52.982;6.658;2022-07-11T09:39:14;18.70;99.90
58865;DHT22;45702;52.982;6.658;2022-07-11T09:41:40;18.60;99.90
58865;DHT22;45702;52.982;6.658;2022-07-11T09:44:07;18.60;99.90
58865;DHT22;45702;52.982;6.658;2022-07-11T09:46:33;18.60;99.90
58865;DHT22;45702;52.982;6.658;2022-07-11T09:49:02;18.50;99.90
58865;DHT22;45702;52.982;6.658;2022-07-11T09:51:28;18.50;99.90
58865;DHT22;45702;52.982;6.658;2022-07-11T09:53:55;18.50;99.90
58865;DHT22;45702;52.982;6.658;2022-07-11T09:56:34;18.50;99.90
58865;DHT22;45702;52.982;6.658;2022-07-11T09:59:01;18.60;99.90
58865;DHT22;45702;52.982;6.658;2022-07-11T10:01:28;18.60;99.90
58865;DHT22;45702;52.982;6.658;2022-07-11T10:03:55;18.70;99.90
58865;DHT22;45702;52.982;6.658;2022-07-11T10:06:21;18.80;99.90
58865;DHT22;45702;52.982;6.658;2022-07-11T10:08:48;18.80;99.90
58865;DHT22;45702;52.982;6.658;2022-07-11T10:11:14;18.80;99.90
58865;DHT22;45702;52.982;6.658;2022-07-11T10:13:41;18.80;99.90
58865;DHT22;45702;52.982;6.658;2022-07-11T10:16:13;18.80;99.90
58865;DHT22;45702;52.982;6.658;2022-07-11T10:18:50;18.80;99.90
58865;DHT22;45702;52.982;6.658;2022-07-11T10:21:25;18.80;99.90
58865;DHT22;45702;52.982;6.658;2022-07-11T10:24:19;18.80;99.90
58865;DHT22;45702;52.982;6.658;2022-07-11T10:27:16;18.80;99.90
58865;DHT22;45702;52.982;6.658;2022-07-11T10:29:50;18.80;99.90
58865;DHT22;45702;52.982;6.658;2022-07-11T10:32:16;18.90;99.90
58865;DHT22;45702;52.982;6.658;2022-07-11T10:34:43;18.90;99.90
58865;DHT22;45702;52.982;6.658;2022-07-11T10:37:09;18.90;99.90
58865;DHT22;45702;52.982;6.658;2022-07-11T10:39:36;19.00;99.90
58865;DHT22;45702;52.982;6.658;2022-07-11T10:42:06;18.90;99.90
58865;DHT22;45702;52.982;6.658;2022-07-11T10:44:55;18.90;99.90
58865;DHT22;45702;52.982;6.658;2022-07-11T10:47:54;18.80;99.90
58865;DHT22;45702;52.982;6.658;2022-07-11T10:50:35;18.80;99.90
58865;DHT22;45702;52.982;6.658;2022-07-11T10:53:09;18.90;99.90
58865;DHT22;45702;52.982;6.658;2022-07-11T10:55:53;18.80;99.90
58865;DHT22;45702;52.982;6.658;2022-07-11T10:58:31;18.90;99.90
58865;DHT22;45702;52.982;6.658;2022-07-11T11:01:13;18.90;99.90
58865;DHT22;45702;52.982;6.658;2022-07-11T11:03:40;18.90;99.90
58865;DHT22;45702;52.982;6.658;2022-07-11T11:06:07;19.00;99.90
58865;DHT22;45702;52.982;6.658;2022-07-11T11:10:59;19.10;99.90
58865;DHT22;45702;52.982;6.658;2022-07-11T11:13:26;19.10;99.90
58865;DHT22;45702;52.982;6.658;2022-07-11T11:15:58;19.20;99.90
58865;DHT22;45702;52.982;6.658;2022-07-11T11:23:38;19.10;99.90
58865;DHT22;45702;52.982;6.658;2022-07-11T11:28:33;19.10;99.90
58865;DHT22;45702;52.982;6.658;2022-07-11T11:31:01;19.10;99.90
58865;DHT22;45702;52.982;6.658;2022-07-11T11:33:29;19.20;99.90
58865;DHT22;45702;52.982;6.658;2022-07-11T11:36:02;19.30;99.90
58865;DHT22;45702;52.982;6.658;2022-07-11T11:38:29;19.20;99.90
58865;DHT22;45702;52.982;6.658;2022-07-11T11:40:58;19.20;99.90
58865;DHT22;45702;52.982;6.658;2022-07-11T11:43:24;19.20;99.90
58865;DHT22;45702;52.982;6.658;2022-07-11T11:45:51;19.10;99.90
58865;DHT22;45702;52.982;6.658;2022-07-11T11:48:36;19.20;99.90
58865;DHT22;45702;52.982;6.658;2022-07-11T11:51:07;19.30;99.90
58865;DHT22;45702;52.982;6.658;2022-07-11T11:53:40;19.40;99.90
58865;DHT22;45702;52.982;6.658;2022-07-11T11:58:48;19.60;99.90
58865;DHT22;45702;52.982;6.658;2022-07-11T12:01:20;19.60;99.90
58865;DHT22;45702;52.982;6.658;2022-07-11T12:03:53;19.60;99.90
58865;DHT22;45702;52.982;6.658;2022-07-11T12:06:27;19.60;99.90
58865;DHT22;45702;52.982;6.658;2022-07-11T12:09:05;19.70;99.90
58865;DHT22;45702;52.982;6.658;2022-07-11T12:11:32;19.70;99.90
58865;DHT22;45702;52.982;6.658;2022-07-11T12:14:02;19.80;99.90
58865;DHT22;45702;52.982;6.658;2022-07-11T12:16:28;19.80;99.90
58865;DHT22;45702;52.982;6.658;2022-07-11T12:19:13;19.90;99.90
58865;DHT22;45702;52.982;6.658;2022-07-11T12:21:42;20.00;99.90
58865;DHT22;45702;52.982;6.658;2022-07-11T12:24:10;20.00;99.90
58865;DHT22;45702;52.982;6.658;2022-07-11T12:26:39;20.00;99.90
58865;DHT22;45702;52.982;6.658;2022-07-11T12:29:23;20.10;99.80
58865;DHT22;45702;52.982;6.658;2022-07-11T12:34:19;20.10;99.70
58865;DHT22;45702;52.982;6.658;2022-07-11T12:36:45;20.20;99.90
58865;DHT22;45702;52.982;6.658;2022-07-11T12:39:31;20.20;99.90
58865;DHT22;45702;52.982;6.658;2022-07-11T12:41:58;20.30;99.90
58865;DHT22;45702;52.982;6.658;2022-07-11T12:44:26;20.40;99.90
58865;DHT22;45702;52.982;6.658;2022-07-11T12:47:11;20.40;99.90
58865;DHT22;45702;52.982;6.658;2022-07-11T12:49:37;20.40;99.20
58865;DHT22;45702;52.982;6.658;2022-07-11T12:52:06;20.40;98.80
58865;DHT22;45702;52.982;6.658;2022-07-11T12:54:32;20.40;99.20
58865;DHT22;45702;52.982;6.658;2022-07-11T12:57:00;20.40;99.10
58865;DHT22;45702;52.982;6.658;2022-07-11T12:59:27;20.40;99.30
58865;DHT22;45702;52.982;6.658;2022-07-11T13:02:11;20.40;99.60
58865;DHT22;45702;52.982;6.658;2022-07-11T13:04:47;20.50;99.50
58865;DHT22;45702;52.982;6.658;2022-07-11T13:07:33;20.50;99.20
58865;DHT22;45702;52.982;6.658;2022-07-11T13:10:22;20.50;99.00
58865;DHT22;45702;52.982;6.658;2022-07-11T13:12:50;20.50;98.50
58865;DHT22;45702;52.982;6.658;2022-07-11T13:15:17;20.60;98.20
58865;DHT22;45702;52.982;6.658;2022-07-11T13:20:15;20.60;97.70
58865;DHT22;45702;52.982;6.658;2022-07-11T13:22:45;20.70;97.80
58865;DHT22;45702;52.982;6.658;2022-07-11T13:25:12;20.90;97.90
58865;DHT22;45702;52.982;6.658;2022-07-11T13:27:43;21.00;97.10
58865;DHT22;45702;52.982;6.658;2022-07-11T13:30:11;21.20;96.90
58865;DHT22;45702;52.982;6.658;2022-07-11T13:32:39;21.30;96.70
58865;DHT22;45702;52.982;6.658;2022-07-11T13:35:06;21.30;95.70
58865;DHT22;45702;52.982;6.658;2022-07-11T13:37:32;21.20;95.90
58865;DHT22;45702;52.982;6.658;2022-07-11T13:40:04;21.20;95.90
58865;DHT22;45702;52.982;6.658;2022-07-11T13:42:30;21.20;95.90
58865;DHT22;45702;52.982;6.658;2022-07-11T13:44:59;21.30;96.30
58865;DHT22;45702;52.982;6.658;2022-07-11T13:47:25;21.40;96.10
58865;DHT22;45702;52.982;6.658;2022-07-11T13:49:51;21.50;95.60
58865;DHT22;45702;52.982;6.658;2022-07-11T13:52:16;21.50;94.50
58865;DHT22;45702;52.982;6.658;2022-07-11T13:54:42;21.50;95.40
58865;DHT22;45702;52.982;6.658;2022-07-11T13:57:08;21.50;95.60
58865;DHT22;45702;52.982;6.658;2022-07-11T13:59:34;21.60;95.00
58865;DHT22;45702;52.982;6.658;2022-07-11T14:02:00;21.60;95.00
58865;DHT22;45702;52.982;6.658;2022-07-11T14:04:26;21.70;94.60
58865;DHT22;45702;52.982;6.658;2022-07-11T14:06:51;21.50;93.90
58865;DHT22;45702;52.982;6.658;2022-07-11T14:09:17;21.40;94.70
58865;DHT22;45702;52.982;6.658;2022-07-11T14:11:43;21.40;94.90
58865;DHT22;45702;52.982;6.658;2022-07-11T14:14:09;21.30;95.20
58865;DHT22;45702;52.982;6.658;2022-07-11T14:16:35;21.30;95.30
58865;DHT22;45702;52.982;6.658;2022-07-11T14:19:00;21.30;94.90
58865;DHT22;45702;52.982;6.658;2022-07-11T14:21:30;21.20;94.80
58865;DHT22;45702;52.982;6.658;2022-07-11T14:23:56;21.20;94.60
58865;DHT22;45702;52.982;6.658;2022-07-11T14:26:22;21.10;94.60
58865;DHT22;45702;52.982;6.658;2022-07-11T14:28:47;21.00;94.60
58865;DHT22;45702;52.982;6.658;2022-07-11T14:31:17;20.90;95.10
58865;DHT22;45702;52.982;6.658;2022-07-11T14:33:44;20.70;95.10
58865;DHT22;45702;52.982;6.658;2022-07-11T14:36:10;20.60;96.10
58865;DHT22;45702;52.982;6.658;2022-07-11T14:38:36;20.60;96.20
58865;DHT22;45702;52.982;6.658;2022-07-11T14:41:01;20.60;96.40
58865;DHT22;45702;52.982;6.658;2022-07-11T14:43:27;20.60;96.10
58865;DHT22;45702;52.982;6.658;2022-07-11T14:45:54;20.60;96.20
58865;DHT22;45702;52.982;6.658;2022-07-11T14:48:19;20.70;96.60
58865;DHT22;45702;52.982;6.658;2022-07-11T14:50:45;20.70;96.60
58865;DHT22;45702;52.982;6.658;2022-07-11T14:53:12;20.70;96.20
58865;DHT22;45702;52.982;6.658;2022-07-11T14:55:38;20.70;96.10
58865;DHT22;45702;52.982;6.658;2022-07-11T14:58:04;20.70;96.20
58865;DHT22;45702;52.982;6.658;2022-07-11T15:00:30;20.70;96.40
58865;DHT22;45702;52.982;6.658;2022-07-11T15:02:57;20.70;96.60
58865;DHT22;45702;52.982;6.658;2022-07-11T15:05:42;20.70;96.20
58865;DHT22;45702;52.982;6.658;2022-07-11T15:08:08;20.60;96.40
58865;DHT22;45702;52.982;6.658;2022-07-11T15:10:52;20.60;96.40
58865;DHT22;45702;52.982;6.658;2022-07-11T15:13:36;20.50;96.60
58865;DHT22;45702;52.982;6.658;2022-07-11T15:16:02;20.40;96.60
58865;DHT22;45702;52.982;6.658;2022-07-11T15:18:29;20.30;96.70
58865;DHT22;45702;52.982;6.658;2022-07-11T15:20:55;20.10;96.80
58865;DHT22;45702;52.982;6.658;2022-07-11T15:23:21;20.00;97.20
58865;DHT22;45702;52.982;6.658;2022-07-11T15:25:48;20.00;97.70
58865;DHT22;45702;52.982;6.658;2022-07-11T15:28:14;20.00;98.00
58865;DHT22;45702;52.982;6.658;2022-07-11T15:30:40;20.00;98.20
58865;DHT22;45702;52.982;6.658;2022-07-11T15:33:06;20.00;98.40
58865;DHT22;45702;52.982;6.658;2022-07-11T15:35:32;20.00;98.50
58865;DHT22;45702;52.982;6.658;2022-07-11T15:37:57;20.10;98.60
58865;DHT22;45702;52.982;6.658;2022-07-11T15:40:23;20.10;98.60
58865;DHT22;45702;52.982;6.658;2022-07-11T15:42:50;20.30;98.40
58865;DHT22;45702;52.982;6.658;2022-07-11T15:45:16;20.50;98.10
58865;DHT22;45702;52.982;6.658;2022-07-11T15:47:42;20.70;97.90
58865;DHT22;45702;52.982;6.658;2022-07-11T15:50:07;21.10;97.80
58865;DHT22;45702;52.982;6.658;2022-07-11T15:52:34;21.60;96.60